createdAt,value
2019-03-20T00:00:35.056Z,102962.56
2019-03-20T00:03:04.154Z,102968.91
2019-03-20T00:05:33.249Z,102968.91
2019-03-20T00:08:02.293Z,102963.41
2019-03-20T00:10:31.339Z,102963.56
2019-03-20T00:13:00.530Z,102956.33
2019-03-20T00:15:29.672Z,102956.73
2019-03-20T00:17:58.828Z,102956.73
2019-03-20T00:20:28.077Z,102957.95
2019-03-20T00:22:57.130Z,102957.95
2019-03-20T00:25:26.228Z,102969.83
2019-03-20T00:27:55.245Z,102966.92
2019-03-20T00:30:24.426Z,102961.00
2019-03-20T00:32:53.574Z,102957.69
2019-03-20T00:35:22.585Z,102957.69
2019-03-20T00:37:51.652Z,102957.77
2019-03-20T00:40:20.807Z,102958.61
2019-03-20T00:42:49.925Z,102954.33
2019-03-20T00:45:19.148Z,102958.95
2019-03-20T00:47:48.305Z,102956.48
2019-03-20T00:50:17.567Z,102953.58
2019-03-20T00:52:46.843Z,102956.11
2019-03-20T00:55:16.602Z,102956.97
2019-03-20T00:57:46.010Z,102956.55
2019-03-20T01:00:16.816Z,102956.98
2019-03-20T01:02:45.977Z,102959.08
2019-03-20T01:05:15.609Z,102957.38
2019-03-20T01:07:45.073Z,102957.38
2019-03-20T01:10:19.003Z,102948.53
2019-03-20T01:12:48.184Z,102946.84
2019-03-20T01:15:17.525Z,102944.72
2019-03-20T01:17:46.738Z,102954.45
2019-03-20T01:20:17.395Z,102954.45
2019-03-20T01:22:46.628Z,102939.23
2019-03-20T01:25:16.347Z,102937.11
2019-03-20T01:27:45.514Z,102943.47
2019-03-20T01:30:32.281Z,102947.23
2019-03-20T01:33:06.001Z,102947.23
2019-03-20T01:35:35.170Z,102952.75
2019-03-20T01:38:04.329Z,102943.44
2019-03-20T01:40:33.550Z,102941.33
2019-03-20T01:43:02.742Z,102941.77
2019-03-20T01:45:31.913Z,102930.78
2019-03-20T01:48:01.061Z,102892.77
2019-03-20T01:50:31.409Z,102930.77
2019-03-20T01:53:00.519Z,102932.45
2019-03-20T01:55:29.612Z,102942.59
2019-03-20T01:57:58.821Z,102937.98
2019-03-20T02:00:27.975Z,102924.39
2019-03-20T02:02:56.979Z,102931.56
2019-03-20T02:05:35.271Z,102931.56
2019-03-20T02:07:56.913Z,102930.69
2019-03-20T02:10:26.086Z,102935.80
2019-03-20T02:12:55.211Z,102938.67
2019-03-20T02:15:24.265Z,102944.19
2019-03-20T02:17:55.590Z,102940.41
2019-03-20T02:20:24.604Z,102943.02
2019-03-20T02:22:53.644Z,102942.58
2019-03-20T02:25:22.762Z,102942.56
2019-03-20T02:27:52.495Z,102938.70
2019-03-20T02:30:21.781Z,102939.56
2019-03-20T02:32:50.920Z,102935.73
2019-03-20T02:35:19.974Z,102932.44
2019-03-20T02:37:48.970Z,102926.91
2019-03-20T02:40:17.988Z,102929.42
2019-03-20T02:42:46.957Z,102931.51
2019-03-20T02:45:16.094Z,102929.44
2019-03-20T02:47:45.265Z,102927.28
2019-03-20T02:50:14.878Z,102934.42
2019-03-20T02:52:44.050Z,102934.42
2019-03-20T02:55:13.277Z,102943.85
2019-03-20T02:57:42.438Z,102943.44
2019-03-20T03:00:13.025Z,102943.44
2019-03-20T03:02:42.119Z,102938.25
2019-03-20T03:05:11.455Z,102933.18
2019-03-20T03:07:40.517Z,102933.14
2019-03-20T03:10:10.706Z,102931.91
2019-03-20T03:12:39.772Z,102931.91
2019-03-20T03:15:09.096Z,102932.29
2019-03-20T03:17:38.187Z,102927.16
2019-03-20T03:20:07.688Z,102926.80
2019-03-20T03:22:36.825Z,102929.75
2019-03-20T03:25:06.728Z,102922.88
2019-03-20T03:27:35.849Z,102924.63
2019-03-20T03:30:05.581Z,102926.32
2019-03-20T03:32:34.685Z,102933.14
2019-03-20T03:35:03.859Z,102929.69
2019-03-20T03:37:32.967Z,102924.22
2019-03-20T03:40:02.003Z,102927.98
2019-03-20T03:42:31.776Z,102933.48
2019-03-20T03:45:00.853Z,102927.52
2019-03-20T03:47:29.851Z,102931.87
2019-03-20T03:50:00.035Z,102929.27
2019-03-20T03:52:29.122Z,102923.30
2019-03-20T03:54:58.171Z,102927.91
2019-03-20T03:57:27.331Z,102919.95
2019-03-20T03:59:56.499Z,102924.17
2019-03-20T04:02:25.511Z,102917.31
2019-03-20T04:04:54.591Z,102922.03
2019-03-20T04:07:24.435Z,102905.98
2019-03-20T04:09:53.433Z,102913.23
2019-03-20T04:12:24.846Z,102908.14
2019-03-20T04:14:53.854Z,102903.91
2019-03-20T04:17:27.367Z,102914.13
2019-03-20T04:19:56.566Z,102909.03
2019-03-20T04:22:25.522Z,102916.22
2019-03-20T04:24:54.587Z,102915.40
2019-03-20T04:27:23.959Z,102919.23
2019-03-20T04:29:53.140Z,102919.23
2019-03-20T04:32:22.274Z,102939.13
2019-03-20T04:34:51.471Z,102931.02
2019-03-20T04:37:20.491Z,102937.81
2019-03-20T04:39:49.522Z,102942.84
2019-03-20T04:42:18.541Z,102936.47
2019-03-20T04:44:47.547Z,102936.47
2019-03-20T04:47:16.649Z,102951.30
2019-03-20T04:49:45.645Z,102955.05
2019-03-20T04:52:14.688Z,102960.63
2019-03-20T04:54:43.655Z,102961.41
2019-03-20T04:57:12.649Z,102956.33
2019-03-20T04:59:41.673Z,102952.97
2019-03-20T05:02:10.690Z,102956.81
2019-03-20T05:04:39.733Z,102956.81
2019-03-20T05:07:08.828Z,102961.81
2019-03-20T05:09:37.859Z,102967.34
2019-03-20T05:12:07.232Z,102967.32
2019-03-20T05:14:36.295Z,102975.28
2019-03-20T05:17:05.452Z,102970.27
2019-03-20T05:19:34.444Z,102975.31
2019-03-20T05:22:03.560Z,102973.64
2019-03-20T05:24:32.560Z,102970.73
2019-03-20T05:27:01.602Z,102970.73
2019-03-20T05:29:30.628Z,102981.20
2019-03-20T05:31:59.662Z,102977.44
2019-03-20T05:34:28.718Z,102975.75
2019-03-20T05:36:57.728Z,102974.91
2019-03-20T05:39:26.752Z,102984.65
2019-03-20T05:41:55.787Z,102985.94
2019-03-20T05:44:24.811Z,102985.45
2019-03-20T05:46:53.838Z,102985.45
2019-03-20T05:49:22.849Z,102995.16
2019-03-20T05:51:51.874Z,102993.88
2019-03-20T05:54:21.037Z,102993.50
2019-03-20T05:56:50.095Z,102993.50
2019-03-20T05:59:21.673Z,102993.50
2019-03-20T06:01:50.718Z,103005.28
2019-03-20T06:04:19.775Z,103011.64
2019-03-20T06:06:48.785Z,103006.52
2019-03-20T06:09:17.921Z,103006.52
2019-03-20T06:11:49.380Z,103011.23
2019-03-20T06:14:18.411Z,103012.45
2019-03-20T06:16:47.453Z,103006.52
2019-03-20T06:19:16.477Z,103009.94
2019-03-20T06:21:45.501Z,103009.94
2019-03-20T06:24:14.479Z,103016.22
2019-03-20T06:26:43.492Z,103015.81
2019-03-20T06:29:12.538Z,103021.29
2019-03-20T06:31:41.559Z,103015.34
2019-03-20T06:34:10.589Z,103011.95
2019-03-20T06:36:39.660Z,103013.20
2019-03-20T06:39:09.063Z,103012.42
2019-03-20T06:41:38.177Z,103021.25
2019-03-20T06:44:07.306Z,103021.69
2019-03-20T06:46:36.449Z,103023.72
2019-03-20T06:49:07.823Z,103023.72
2019-03-20T06:51:36.337Z,103027.08
2019-03-20T06:54:05.528Z,103032.63
2019-03-20T06:56:34.603Z,103039.37
2019-03-20T06:59:50.694Z,103041.48
2019-03-20T07:02:21.170Z,103047.77
2019-03-20T07:05:02.195Z,103053.28
2019-03-20T07:07:43.658Z,103054.98
2019-03-20T07:10:30.313Z,103049.07
2019-03-20T07:12:59.314Z,103046.50
2019-03-20T07:15:28.347Z,103043.03
2019-03-20T07:17:57.408Z,103043.03
2019-03-20T07:20:26.442Z,103044.24
2019-03-20T07:22:55.465Z,103044.24
2019-03-20T07:25:24.490Z,103043.76
2019-03-20T07:27:53.518Z,103046.70
2019-03-20T07:30:23.427Z,103048.34
2019-03-20T07:32:52.462Z,103050.44
2019-03-20T07:35:21.693Z,103046.65
2019-03-20T07:37:55.879Z,103053.00
2019-03-20T07:40:21.719Z,103053.00
2019-03-20T07:42:50.701Z,103055.09
2019-03-20T07:45:19.788Z,103053.37
2019-03-20T07:47:48.809Z,103055.92
2019-03-20T07:50:17.885Z,103056.32
2019-03-20T07:52:46.965Z,103065.62
2019-03-20T07:55:16.062Z,103066.43
2019-03-20T07:57:45.055Z,103061.82
2019-03-20T08:00:14.821Z,103062.20
2019-03-20T08:02:43.834Z,103067.30
2019-03-20T08:05:12.897Z,103068.94
2019-03-20T08:07:41.928Z,103070.66
2019-03-20T08:10:12.627Z,103068.55
2019-03-20T08:12:41.720Z,103076.97
2019-03-20T08:15:14.513Z,103075.30
2019-03-20T08:17:43.698Z,103077.31
2019-03-20T08:20:13.486Z,103076.94
2019-03-20T08:22:42.589Z,103080.27
2019-03-20T08:25:11.794Z,103080.27
2019-03-20T08:27:40.889Z,103085.81
2019-03-20T08:30:13.759Z,103092.95
2019-03-20T08:32:43.038Z,103093.72
2019-03-20T08:35:12.188Z,103089.86
2019-03-20T08:37:41.317Z,103090.31
2019-03-20T08:40:11.383Z,103089.62
2019-03-20T08:42:40.532Z,103092.25
2019-03-20T08:45:11.124Z,103088.85
2019-03-20T08:47:40.298Z,103090.41
2019-03-20T08:50:13.260Z,103095.11
2019-03-20T08:52:42.486Z,103099.73
2019-03-20T08:55:11.940Z,103100.69
2019-03-20T08:57:41.045Z,103103.59
2019-03-20T09:00:17.484Z,103100.97
2019-03-20T09:02:46.669Z,103114.17
2019-03-20T09:05:15.917Z,103112.00
2019-03-20T09:07:47.890Z,103109.78
2019-03-20T09:10:18.577Z,103117.11
2019-03-20T09:12:47.724Z,103115.73
2019-03-20T09:15:17.992Z,103119.16
2019-03-20T09:17:47.309Z,103119.16
2019-03-20T09:20:16.561Z,103134.36
2019-03-20T09:22:45.793Z,103134.36
2019-03-20T09:25:16.357Z,103136.38
2019-03-20T09:27:45.554Z,103135.91
2019-03-20T09:30:17.185Z,103131.13
2019-03-20T09:32:46.439Z,103133.62
2019-03-20T09:35:15.615Z,103136.06
2019-03-20T09:37:51.977Z,103139.46
2019-03-20T09:40:16.713Z,103132.69
2019-03-20T09:42:45.876Z,103141.50
2019-03-20T09:45:15.923Z,103143.00
2019-03-20T09:47:45.170Z,103139.27
2019-03-20T09:50:15.852Z,103142.27
2019-03-20T09:52:44.825Z,103143.91
2019-03-20T09:55:14.472Z,103153.80
2019-03-20T09:57:43.634Z,103153.80
2019-03-20T10:00:20.589Z,103159.41
2019-03-20T10:02:49.669Z,103164.75
2019-03-20T10:05:18.811Z,103161.33
2019-03-20T10:07:47.983Z,103168.50
2019-03-20T10:10:18.498Z,103171.87
2019-03-20T10:12:47.598Z,103169.37
2019-03-20T10:15:17.205Z,103171.02
2019-03-20T10:17:46.283Z,103168.10
2019-03-20T10:20:17.623Z,103169.23
2019-03-20T10:22:46.741Z,103172.11
2019-03-20T10:25:16.148Z,103175.79
2019-03-20T10:27:46.370Z,103176.24
2019-03-20T10:30:17.818Z,103176.79
2019-03-20T10:32:46.926Z,103177.22
2019-03-20T10:35:16.122Z,103174.52
2019-03-20T10:37:45.326Z,103173.53
2019-03-20T10:40:16.256Z,103171.02
2019-03-20T10:42:45.457Z,103170.06
2019-03-20T10:45:14.788Z,103170.06
2019-03-20T10:47:43.933Z,103172.06
2019-03-20T10:50:15.103Z,103172.06
2019-03-20T10:52:44.199Z,103172.00
2019-03-20T10:55:13.534Z,103173.77
2019-03-20T10:57:42.715Z,103174.97
2019-03-20T11:00:16.132Z,103181.78
2019-03-20T11:02:45.215Z,103185.50
2019-03-20T11:05:14.902Z,103185.05
2019-03-20T11:07:43.959Z,103182.59
2019-03-20T11:10:14.823Z,103185.15
2019-03-20T11:12:43.903Z,103189.37
2019-03-20T11:15:13.954Z,103189.37
2019-03-20T11:17:43.100Z,103194.54
2019-03-20T11:20:13.555Z,103193.52
2019-03-20T11:22:42.733Z,103194.27
2019-03-20T11:25:12.877Z,103200.19
2019-03-20T11:27:41.925Z,103188.95
2019-03-20T11:30:17.725Z,103191.57
2019-03-20T11:32:46.214Z,103195.25
2019-03-20T11:35:15.307Z,103200.25
2019-03-20T11:37:44.407Z,103193.52
2019-03-20T11:40:19.340Z,103196.85
2019-03-20T11:42:48.528Z,103196.85
2019-03-20T11:45:17.624Z,103206.61
2019-03-20T11:47:46.713Z,103206.69
2019-03-20T11:50:18.335Z,103209.08
2019-03-20T11:52:47.447Z,103210.78
2019-03-20T11:55:16.624Z,103215.36
2019-03-20T11:57:45.802Z,103220.12
2019-03-20T12:00:16.784Z,103214.73
2019-03-20T12:02:46.010Z,103220.54
2019-03-20T12:05:15.246Z,103220.54
2019-03-20T12:07:44.317Z,103221.36
2019-03-20T12:10:16.074Z,103218.22
2019-03-20T12:12:45.085Z,103218.22
2019-03-20T12:15:14.255Z,103209.69
2019-03-20T12:17:43.440Z,103209.69
2019-03-20T12:20:15.680Z,103202.19
2019-03-20T12:22:44.888Z,103205.48
2019-03-20T12:25:33.357Z,103201.55
2019-03-20T12:28:04.129Z,103199.55
2019-03-20T12:30:33.278Z,103199.55
2019-03-20T12:33:02.384Z,103183.67
2019-03-20T12:35:32.277Z,103195.72
2019-03-20T12:38:13.365Z,103195.55
2019-03-20T12:40:32.354Z,103184.30
2019-03-20T12:43:01.653Z,103190.53
2019-03-20T12:45:34.105Z,103195.94
2019-03-20T12:48:05.169Z,103194.91
2019-03-20T12:50:34.380Z,103184.05
2019-03-20T12:53:03.839Z,103184.05
2019-03-20T12:55:32.919Z,103197.64
2019-03-20T12:58:02.189Z,103198.11
2019-03-20T13:00:31.967Z,103194.62
2019-03-20T13:03:01.178Z,103197.77
2019-03-20T13:05:30.260Z,103196.23
2019-03-20T13:08:05.597Z,103192.44
2019-03-20T13:10:30.194Z,103192.02
2019-03-20T13:12:59.331Z,103187.62
2019-03-20T13:15:28.467Z,103187.62
2019-03-20T13:17:57.769Z,103184.70
2019-03-20T13:20:27.426Z,103186.56
2019-03-20T13:22:59.620Z,103186.56
2019-03-20T13:25:28.623Z,103190.61
2019-03-20T13:27:57.720Z,103184.05
2019-03-20T13:30:29.415Z,103182.34
2019-03-20T13:33:01.311Z,103190.13
2019-03-20T13:35:30.401Z,103190.13
2019-03-20T13:37:59.533Z,103189.22
2019-03-20T13:40:29.719Z,103181.52
2019-03-20T13:42:58.839Z,103135.83
2019-03-20T13:45:27.816Z,103187.81
2019-03-20T13:47:56.928Z,103187.81
2019-03-20T13:50:27.183Z,103185.58
2019-03-20T13:52:56.197Z,103181.97
2019-03-20T13:55:25.316Z,103177.30
2019-03-20T13:57:55.878Z,103180.23
2019-03-20T14:00:24.995Z,103178.77
2019-03-20T14:02:55.887Z,103176.40
2019-03-20T14:05:25.058Z,103178.95
2019-03-20T14:07:54.081Z,103174.12
2019-03-20T14:10:25.452Z,103174.12
2019-03-20T14:12:54.219Z,103178.23
2019-03-20T14:15:23.470Z,103174.78
2019-03-20T14:17:52.728Z,103168.80
2019-03-20T14:20:23.290Z,103168.80
2019-03-20T14:22:52.308Z,103167.52
2019-03-20T14:25:21.479Z,103174.50
2019-03-20T14:27:50.579Z,103165.98
2019-03-20T14:30:21.874Z,103160.52
2019-03-20T14:32:51.057Z,103169.95
2019-03-20T14:35:20.072Z,103178.62
2019-03-20T14:37:49.240Z,103172.97
2019-03-20T14:40:20.223Z,103163.55
2019-03-20T14:42:49.412Z,103168.66
2019-03-20T14:45:18.616Z,103171.02
2019-03-20T14:47:47.734Z,103169.20
2019-03-20T14:50:18.755Z,103169.20
2019-03-20T14:52:47.844Z,103173.83
2019-03-20T14:55:16.931Z,103175.34
2019-03-20T14:57:46.072Z,103174.07
2019-03-20T15:00:17.714Z,103173.70
2019-03-20T15:02:46.892Z,103160.25
2019-03-20T15:05:16.034Z,103170.91
2019-03-20T15:07:46.305Z,103178.16
2019-03-20T15:10:17.095Z,103173.87
2019-03-20T15:12:46.371Z,103175.77
2019-03-20T15:15:38.785Z,103176.61
2019-03-20T15:18:07.963Z,103169.95
2019-03-20T15:20:37.143Z,103170.22
2019-03-20T15:23:06.240Z,103176.42
2019-03-20T15:25:35.356Z,103174.33
2019-03-20T15:28:04.798Z,103171.66
2019-03-20T15:30:33.948Z,103170.70
2019-03-20T15:33:03.068Z,103169.05
2019-03-20T15:35:32.124Z,103166.91
2019-03-20T15:38:01.299Z,103166.91
2019-03-20T15:40:30.475Z,103168.94
2019-03-20T15:42:59.592Z,103162.06
2019-03-20T15:45:28.570Z,103168.48
2019-03-20T15:47:57.654Z,103167.98
2019-03-20T15:50:26.814Z,103164.05
2019-03-20T15:52:56.403Z,103168.38
2019-03-20T15:55:27.654Z,103159.88
2019-03-20T15:57:56.763Z,103159.99
2019-03-20T16:00:26.050Z,103159.52
2019-03-20T16:02:59.999Z,103155.67
2019-03-20T16:05:29.162Z,103158.92
2019-03-20T16:07:58.188Z,103156.38
2019-03-20T16:10:27.251Z,103162.45
2019-03-20T16:12:56.326Z,103162.17
2019-03-20T16:15:25.515Z,103162.17
2019-03-20T16:17:55.640Z,103166.87
2019-03-20T16:20:24.679Z,103168.77
2019-03-20T16:22:53.832Z,103169.38
2019-03-20T16:25:23.072Z,103167.77
2019-03-20T16:27:52.157Z,103173.27
2019-03-20T16:30:22.158Z,103177.20
2019-03-20T16:32:51.322Z,103187.55
2019-03-20T16:35:20.360Z,103181.47
2019-03-20T16:37:49.460Z,103190.90
2019-03-20T16:40:22.921Z,103193.51
2019-03-20T16:42:53.285Z,103193.51
2019-03-20T16:45:24.478Z,103192.02
2019-03-20T16:47:53.487Z,103188.39
2019-03-20T16:50:22.648Z,103191.78
2019-03-20T16:52:51.754Z,103190.44
2019-03-20T16:55:20.820Z,103194.81
2019-03-20T16:57:49.999Z,103194.43
2019-03-20T17:00:26.704Z,103197.69
2019-03-20T17:02:55.927Z,103196.52
2019-03-20T17:05:27.526Z,103191.71
2019-03-20T17:07:56.900Z,103192.17
2019-03-20T17:10:28.236Z,103192.17
2019-03-20T17:12:57.369Z,103197.78
2019-03-20T17:15:28.375Z,103195.72
2019-03-20T17:17:57.445Z,103197.52
2019-03-20T17:20:26.678Z,103207.61
2019-03-20T17:22:56.085Z,103207.61
2019-03-20T17:25:25.263Z,103211.64
2019-03-20T17:27:54.341Z,103214.14
2019-03-20T17:30:25.394Z,103216.31
2019-03-20T17:32:54.414Z,103216.31
2019-03-20T17:35:24.731Z,103220.67
2019-03-20T17:37:53.953Z,103213.58
2019-03-20T17:40:23.087Z,103216.75
2019-03-20T17:42:52.261Z,103219.73
2019-03-20T17:45:21.808Z,103212.73
2019-03-20T17:47:50.973Z,103218.69
2019-03-20T17:50:25.413Z,103214.09
2019-03-20T17:52:54.527Z,103224.72
2019-03-20T17:55:25.007Z,103216.19
2019-03-20T17:57:54.112Z,103216.19
2019-03-20T18:00:30.316Z,103219.77
2019-03-20T18:03:02.452Z,103217.02
2019-03-20T18:05:32.903Z,103221.48
2019-03-20T18:08:02.011Z,103219.36
2019-03-20T18:10:33.110Z,103219.27
2019-03-20T18:13:01.893Z,103219.27
2019-03-20T18:15:31.149Z,103231.56
2019-03-20T18:18:00.234Z,103239.95
2019-03-20T18:20:29.333Z,103244.17
2019-03-20T18:22:58.352Z,103246.13
2019-03-20T18:25:27.440Z,103241.27
2019-03-20T18:27:56.524Z,103241.27
2019-03-20T18:30:26.731Z,103252.06
2019-03-20T18:32:55.886Z,103256.58
2019-03-20T18:35:25.026Z,103256.58
2019-03-20T18:37:54.212Z,103263.18
2019-03-20T18:40:23.392Z,103263.18
2019-03-20T18:42:52.562Z,103258.73
2019-03-20T18:45:21.849Z,103253.55
2019-03-20T18:47:50.932Z,103253.70
2019-03-20T18:50:20.209Z,103262.66
2019-03-20T18:52:49.390Z,103262.66
2019-03-20T18:55:18.849Z,103257.20
2019-03-20T18:57:48.167Z,103267.81
2019-03-20T19:00:19.371Z,103259.84
2019-03-20T19:02:48.558Z,103259.84
2019-03-20T19:05:30.202Z,103266.33
2019-03-20T19:08:00.593Z,103265.64
2019-03-20T19:10:29.801Z,103266.69
2019-03-20T19:12:59.057Z,103262.98
2019-03-20T19:15:28.112Z,103262.55
2019-03-20T19:17:57.303Z,103260.34
2019-03-20T19:20:27.893Z,103265.53
2019-03-20T19:22:56.910Z,103257.05
2019-03-20T19:25:25.991Z,103260.56
2019-03-20T19:27:55.172Z,103260.56
2019-03-20T19:30:24.308Z,103264.68
2019-03-20T19:32:53.585Z,103262.82
2019-03-20T19:35:22.752Z,103270.05
2019-03-20T19:37:51.850Z,103264.80
2019-03-20T19:40:21.024Z,103264.80
2019-03-20T19:42:50.194Z,103267.42
2019-03-20T19:45:19.434Z,103267.42
2019-03-20T19:47:48.625Z,103270.37
2019-03-20T19:50:17.828Z,103270.83
2019-03-20T19:52:46.968Z,103274.77
2019-03-20T19:55:16.102Z,103276.30
2019-03-20T19:57:45.250Z,103273.31
2019-03-20T20:00:15.376Z,103275.48
2019-03-20T20:02:44.561Z,103283.25
2019-03-20T20:05:15.927Z,103272.92
2019-03-20T20:07:44.778Z,103275.38
2019-03-20T20:10:13.953Z,103280.48
2019-03-20T20:12:43.048Z,103278.75
2019-03-20T20:15:14.602Z,103278.64
2019-03-20T20:17:43.774Z,103283.05
2019-03-20T20:20:14.789Z,103282.75
2019-03-20T20:22:43.770Z,103286.20
2019-03-20T20:25:12.955Z,103285.41
2019-03-20T20:27:41.974Z,103287.14
2019-03-20T20:30:13.605Z,103292.25
2019-03-20T20:32:43.020Z,103288.88
2019-03-20T20:35:12.439Z,103290.23
2019-03-20T20:37:41.428Z,103297.03
2019-03-20T20:40:12.766Z,103295.98
2019-03-20T20:42:43.237Z,103297.13
2019-03-20T20:45:12.811Z,103305.19
2019-03-20T20:47:41.947Z,103305.19
2019-03-20T20:50:11.382Z,103299.05
2019-03-20T20:52:40.590Z,103296.41
2019-03-20T20:55:10.881Z,103295.37
2019-03-20T20:57:39.970Z,103295.37
2019-03-20T21:00:13.011Z,103290.38
2019-03-20T21:02:42.085Z,103289.25
2019-03-20T21:05:11.112Z,103281.75
2019-03-20T21:07:40.128Z,103283.45
2019-03-20T21:10:11.424Z,103281.59
2019-03-20T21:12:42.563Z,103283.58
2019-03-20T21:15:34.428Z,103278.39
2019-03-20T21:18:36.651Z,103274.18
2019-03-20T21:21:06.261Z,103274.18
2019-03-20T21:24:11.309Z,103271.77
2019-03-20T21:26:53.302Z,103271.77
2019-03-20T21:30:10.292Z,103270.28
2019-03-20T21:32:41.810Z,103269.95
2019-03-20T21:35:53.791Z,103271.66
2019-03-20T21:38:21.311Z,103268.27
2019-03-20T21:41:12.878Z,103259.91
2019-03-20T21:44:20.374Z,103258.31
2019-03-20T21:47:19.150Z,103257.03
2019-03-20T21:49:48.759Z,103257.03
2019-03-20T21:52:18.310Z,103255.73
2019-03-20T21:55:28.483Z,103260.48
2019-03-20T21:58:32.995Z,103269.01
2019-03-20T22:01:46.368Z,103269.00
2019-03-20T22:04:16.021Z,103268.61
2019-03-20T22:07:22.559Z,103273.69
2019-03-20T22:10:36.003Z,103271.61
2019-03-20T22:13:27.680Z,103271.61
2019-03-20T22:16:52.057Z,103275.45
2019-03-20T22:19:49.826Z,103273.39
2019-03-20T22:22:59.757Z,103270.83
2019-03-20T22:25:48.132Z,103270.83
2019-03-20T22:28:50.002Z,103272.15
2019-03-20T22:31:20.199Z,103278.58
2019-03-20T22:34:44.702Z,103278.58
2019-03-20T22:37:15.020Z,103271.31
2019-03-20T22:40:20.301Z,103272.15
2019-03-20T22:43:07.437Z,103277.31
2019-03-20T22:46:09.005Z,103280.75
2019-03-20T22:49:34.227Z,103279.05
2019-03-20T22:52:39.531Z,103279.03
2019-03-20T22:55:41.035Z,103278.19
2019-03-20T22:58:45.507Z,103279.03
2019-03-20T23:01:32.417Z,103279.86
2019-03-20T23:04:06.749Z,103283.30
2019-03-20T23:06:36.292Z,103287.12
2019-03-20T23:09:08.023Z,103285.39
2019-03-20T23:11:37.567Z,103285.39
2019-03-20T23:14:07.309Z,103288.33
2019-03-20T23:16:37.001Z,103290.87
2019-03-20T23:19:06.578Z,103290.87
2019-03-20T23:21:36.171Z,103291.30
2019-03-20T23:24:05.762Z,103292.56
2019-03-20T23:26:35.343Z,103292.56
2019-03-20T23:29:05.069Z,103287.52
2019-03-20T23:31:34.676Z,103290.89
2019-03-20T23:34:04.286Z,103289.22
2019-03-20T23:36:33.907Z,103289.22
2019-03-20T23:39:06.553Z,103284.13
2019-03-20T23:41:36.114Z,103288.41
2019-03-20T23:44:05.847Z,103278.22
2019-03-20T23:46:35.464Z,103277.80
2019-03-20T23:49:11.509Z,103284.59
2019-03-20T23:51:41.160Z,103288.84
2019-03-20T23:54:11.651Z,103287.56
2019-03-20T23:56:41.292Z,103283.31
2019-03-20T23:59:10.820Z,103283.31
